createdAt,value
2018-08-19T00:01:03.066Z,3.30
2018-08-19T00:06:06.826Z,3.37
2018-08-19T00:11:11.724Z,3.47
2018-08-19T00:16:15.334Z,3.30
2018-08-19T00:21:19.128Z,3.57
2018-08-19T00:26:24.954Z,3.03
2018-08-19T00:31:28.593Z,3.07
2018-08-19T00:36:35.143Z,3.23
2018-08-19T00:41:38.778Z,3.27
2018-08-19T00:46:49.755Z,3.07
2018-08-19T00:51:58.615Z,3.60
2018-08-19T00:57:14.411Z,3.33
2018-08-19T01:02:18.026Z,2.80
2018-08-19T01:07:21.741Z,3.57
2018-08-19T01:12:25.478Z,2.90
2018-08-19T01:17:33.415Z,3.73
2018-08-19T01:22:42.477Z,3.90
2018-08-19T01:27:46.295Z,3.90
2018-08-19T01:32:50.002Z,3.00
2018-08-19T01:37:53.541Z,3.10
2018-08-19T01:42:57.122Z,3.00
2018-08-19T01:48:00.754Z,3.37
2018-08-19T01:53:04.389Z,3.50
2018-08-19T01:58:08.838Z,3.53
2018-08-19T02:03:14.623Z,3.30
2018-08-19T02:08:18.389Z,3.13
2018-08-19T02:13:23.127Z,3.20
2018-08-19T02:18:26.857Z,3.40
2018-08-19T02:23:30.430Z,3.50
2018-08-19T02:28:40.318Z,2.93
2018-08-19T02:33:49.083Z,3.70
2018-08-19T02:38:52.682Z,3.47
2018-08-19T02:43:58.862Z,3.53
2018-08-19T02:49:02.554Z,3.77
2018-08-19T02:54:06.373Z,3.17
2018-08-19T02:59:10.518Z,3.40
2018-08-19T03:04:14.758Z,4.03
2018-08-19T03:09:21.668Z,3.23
2018-08-19T03:14:25.235Z,3.20
2018-08-19T03:19:29.973Z,3.10
2018-08-19T03:24:33.518Z,3.50
2018-08-19T03:29:41.277Z,3.33
2018-08-19T03:34:44.891Z,3.30
2018-08-19T03:39:53.315Z,3.43
2018-08-19T03:45:04.453Z,3.30
2018-08-19T03:50:16.823Z,3.30
2018-08-19T03:55:25.665Z,3.23
2018-08-19T04:00:37.864Z,3.00
2018-08-19T04:05:44.443Z,3.00
2018-08-19T04:10:48.746Z,3.40
2018-08-19T04:15:52.740Z,3.37
2018-08-19T04:20:57.957Z,3.50
2018-08-19T04:26:01.944Z,3.50
2018-08-19T04:31:37.945Z,3.47
2018-08-19T04:36:41.498Z,3.40
2018-08-19T04:41:45.114Z,3.57
2018-08-19T04:46:48.671Z,3.90
2018-08-19T04:51:52.542Z,3.43
2018-08-19T04:56:56.366Z,3.50
2018-08-19T05:01:59.990Z,3.60
2018-08-19T05:07:07.152Z,3.63
2018-08-19T05:12:10.850Z,3.83
2018-08-19T05:17:14.589Z,3.20
2018-08-19T05:22:18.154Z,3.67
2018-08-19T05:27:25.945Z,3.50
2018-08-19T05:32:29.506Z,3.77
2018-08-19T05:37:33.052Z,4.07
2018-08-19T05:42:36.706Z,3.87
2018-08-19T05:47:40.240Z,3.80
2018-08-19T05:52:43.844Z,3.83
2018-08-19T05:57:48.478Z,3.97
2018-08-19T06:02:52.932Z,4.20
2018-08-19T06:08:07.877Z,4.33
2018-08-19T06:13:12.606Z,4.90
2018-08-19T06:18:16.479Z,4.13
2018-08-19T06:23:21.569Z,4.80
2018-08-19T06:28:25.346Z,4.70
2018-08-19T06:33:28.902Z,5.90
2018-08-19T06:38:32.439Z,5.63
2018-08-19T06:43:36.279Z,5.37
2018-08-19T06:48:40.058Z,5.87
2018-08-19T06:53:44.026Z,6.03
2018-08-19T06:58:47.751Z,6.10
2018-08-19T07:03:55.673Z,5.57
2018-08-19T07:09:00.322Z,5.30
2018-08-19T07:14:04.079Z,4.80
2018-08-19T07:19:19.851Z,5.20
2018-08-19T07:24:24.115Z,4.57
2018-08-19T07:29:30.654Z,4.23
2018-08-19T07:34:34.192Z,5.00
2018-08-19T07:39:44.581Z,4.70
2018-08-19T07:44:48.117Z,5.37
2018-08-19T07:49:51.537Z,5.77
2018-08-19T07:54:55.220Z,4.77
2018-08-19T07:59:58.813Z,4.97
2018-08-19T08:05:02.518Z,5.37
2018-08-19T08:10:09.354Z,5.60
2018-08-19T08:15:13.042Z,4.75
2018-08-19T08:20:19.425Z,5.22
2018-08-19T08:25:26.654Z,4.87
2018-08-19T08:30:31.283Z,4.47
2018-08-19T08:35:39.355Z,3.85
2018-08-19T08:40:47.388Z,4.00
2018-08-19T08:45:56.638Z,4.28
2018-08-19T08:51:04.418Z,4.55
2018-08-19T08:56:08.264Z,4.35
2018-08-19T09:01:11.954Z,3.47
2018-08-19T09:06:26.783Z,4.42
2018-08-19T09:11:30.482Z,3.20
2018-08-19T09:16:34.096Z,3.12
2018-08-19T09:21:38.697Z,3.10
2018-08-19T09:26:42.294Z,3.65
2018-08-19T09:31:46.517Z,3.05
2018-08-19T09:36:50.202Z,3.08
2018-08-19T09:41:59.028Z,3.02
2018-08-19T09:47:02.656Z,3.90
2018-08-19T09:52:08.301Z,3.30
2018-08-19T09:57:12.849Z,3.20
2018-08-19T10:02:17.981Z,2.17
2018-08-19T10:07:25.567Z,2.47
2018-08-19T10:12:29.275Z,1.90
2018-08-19T10:17:37.074Z,1.90
2018-08-19T10:22:42.828Z,2.10
2018-08-19T10:27:49.823Z,1.90
2018-08-19T10:33:04.506Z,1.80
2018-08-19T10:38:10.163Z,1.57
2018-08-19T10:43:13.689Z,2.27
2018-08-19T10:48:25.797Z,2.07
2018-08-19T10:53:29.713Z,1.90
2018-08-19T10:58:35.293Z,1.97
2018-08-19T11:03:39.090Z,2.30
2018-08-19T11:08:47.000Z,2.10
2018-08-19T11:13:52.576Z,2.00
2018-08-19T11:18:56.230Z,2.40
2018-08-19T11:24:00.067Z,2.23
2018-08-19T11:29:08.677Z,1.93
2018-08-19T11:34:12.334Z,2.50
2018-08-19T11:39:29.734Z,2.20
2018-08-19T11:44:36.099Z,2.57
2018-08-19T11:49:39.718Z,2.10
2018-08-19T11:54:44.313Z,2.33
2018-08-19T12:00:01.442Z,2.73
2018-08-19T12:05:07.776Z,2.60
2018-08-19T12:10:11.700Z,2.40
2018-08-19T12:15:15.817Z,2.53
2018-08-19T12:20:29.666Z,2.87
2018-08-19T12:25:34.315Z,2.53
2018-08-19T12:30:42.398Z,2.60
2018-08-19T12:35:47.083Z,3.30
2018-08-19T12:40:53.558Z,3.20
2018-08-19T12:45:59.773Z,2.70
2018-08-19T12:51:05.400Z,3.20
2018-08-19T12:56:09.127Z,2.77
2018-08-19T13:01:13.926Z,4.40
2018-08-19T13:06:18.936Z,3.43
2018-08-19T13:11:22.565Z,3.80
2018-08-19T13:16:26.288Z,3.20
2018-08-19T13:21:29.871Z,3.40
2018-08-19T13:26:34.646Z,3.23
2018-08-19T13:31:38.385Z,3.80
2018-08-19T13:36:47.631Z,3.87
2018-08-19T13:41:51.843Z,3.50
2018-08-19T13:46:55.456Z,3.40
2018-08-19T13:52:01.293Z,4.10
2018-08-19T13:57:06.733Z,4.00
2018-08-19T14:02:10.318Z,4.30
2018-08-19T14:07:13.924Z,4.60
2018-08-19T14:12:18.338Z,4.03
2018-08-19T14:17:21.965Z,4.20
2018-08-19T14:22:25.510Z,4.90
2018-08-19T14:27:33.565Z,4.43
2018-08-19T14:32:41.522Z,4.37
2018-08-19T14:37:49.315Z,4.67
2018-08-19T14:42:52.955Z,4.23
2018-08-19T14:47:56.555Z,4.37
2018-08-19T14:53:00.097Z,4.73
2018-08-19T14:58:03.830Z,5.10
2018-08-19T15:03:07.594Z,6.00
2018-08-19T15:08:19.318Z,5.30
2018-08-19T15:13:23.094Z,6.00
2018-08-19T15:18:26.915Z,8.57
2018-08-19T15:23:30.540Z,5.30
2018-08-19T15:28:34.250Z,4.90
2018-08-19T15:33:38.834Z,5.37
2018-08-19T15:38:44.771Z,5.23
2018-08-19T15:43:50.634Z,5.90
2018-08-19T15:48:55.362Z,5.20
2018-08-19T15:54:00.025Z,5.27
2018-08-19T15:59:05.742Z,6.17
2018-08-19T16:04:16.922Z,8.97
2018-08-19T16:09:21.847Z,6.33
2018-08-19T16:14:27.955Z,5.93
2018-08-19T16:19:31.502Z,5.70
2018-08-19T16:24:36.177Z,6.37
2018-08-19T16:29:39.910Z,6.30
2018-08-19T16:34:44.583Z,5.90
2018-08-19T16:39:48.151Z,7.83
2018-08-19T16:44:52.878Z,9.07
2018-08-19T16:49:57.127Z,6.90
2018-08-19T16:55:00.767Z,5.77
2018-08-19T17:00:06.173Z,7.13
2018-08-19T17:05:31.635Z,5.13
2018-08-19T17:10:35.382Z,5.50
2018-08-19T17:15:47.207Z,5.97
2018-08-19T17:20:50.745Z,5.87
2018-08-19T17:26:08.001Z,6.63
2018-08-19T17:31:12.332Z,6.80
2018-08-19T17:36:23.242Z,6.33
2018-08-19T17:41:32.124Z,6.00
2018-08-19T17:46:36.766Z,6.17
2018-08-19T17:51:40.361Z,5.87
2018-08-19T17:56:44.833Z,6.20
2018-08-19T18:01:48.378Z,5.77
2018-08-19T18:06:52.044Z,5.77
2018-08-19T18:12:04.825Z,6.37
2018-08-19T18:17:08.490Z,6.20
2018-08-19T18:22:12.058Z,6.47
2018-08-19T18:27:15.902Z,6.17
2018-08-19T18:32:23.830Z,6.07
2018-08-19T18:37:28.090Z,6.67
2018-08-19T18:48:06.386Z,6.60
2018-08-19T18:53:15.079Z,6.10
2018-08-19T18:58:18.644Z,6.57
2018-08-19T19:03:22.387Z,6.40
2018-08-19T19:08:26.199Z,6.23
2018-08-19T19:13:31.011Z,6.07
2018-08-19T19:18:38.710Z,6.57
2018-08-19T19:23:44.315Z,5.50
2018-08-19T19:28:49.972Z,6.17
2018-08-19T19:33:58.660Z,5.87
2018-08-19T19:39:06.211Z,6.90
2018-08-19T19:44:23.690Z,6.43
2018-08-19T19:49:28.171Z,7.43
2018-08-19T19:54:33.121Z,6.60
2018-08-19T19:59:36.647Z,7.23
2018-08-19T20:04:40.239Z,6.70
2018-08-19T20:09:44.287Z,6.70
2018-08-19T20:14:50.515Z,6.40
2018-08-19T20:19:54.265Z,6.53
2018-08-19T20:24:58.035Z,6.97
2018-08-19T20:30:01.646Z,7.30
2018-08-19T20:35:05.477Z,7.13
2018-08-19T20:40:09.182Z,6.97
2018-08-19T20:45:16.766Z,7.43
2018-08-19T20:50:20.437Z,7.10
2018-08-19T20:55:26.110Z,7.07
2018-08-19T21:00:29.865Z,6.23
2018-08-19T21:05:33.475Z,7.30
2018-08-19T21:10:40.531Z,9.20
2018-08-19T21:15:46.505Z,10.33
2018-08-19T21:20:54.466Z,8.20
2018-08-19T21:26:00.342Z,7.90
2018-08-19T21:31:03.978Z,8.07
2018-08-19T21:36:09.594Z,8.23
2018-08-19T21:41:13.173Z,7.67
2018-08-19T21:46:18.929Z,7.20
2018-08-19T21:51:22.855Z,7.20
2018-08-19T21:56:26.507Z,8.57
2018-08-19T22:01:35.278Z,9.13
2018-08-19T22:06:38.926Z,8.93
2018-08-19T22:11:43.644Z,8.37
2018-08-19T22:17:08.546Z,7.83
2018-08-19T22:22:12.225Z,8.07
2018-08-19T22:27:17.874Z,8.40
2018-08-19T22:32:21.691Z,9.60
2018-08-19T22:37:25.361Z,11.27
2018-08-19T22:42:30.975Z,8.00
2018-08-19T22:47:34.630Z,8.00
2018-08-19T22:52:38.470Z,7.77
2018-08-19T22:57:42.038Z,7.37
2018-08-19T23:02:45.693Z,7.50
2018-08-19T23:07:49.245Z,7.73
2018-08-19T23:12:52.868Z,7.80
2018-08-19T23:18:02.291Z,7.50
2018-08-19T23:23:05.866Z,9.00
2018-08-19T23:28:14.266Z,8.13
2018-08-19T23:33:18.026Z,9.73
2018-08-19T23:38:21.770Z,9.07
2018-08-19T23:43:25.350Z,9.40
2018-08-19T23:48:32.978Z,7.73
2018-08-19T23:53:36.672Z,6.97
2018-08-19T23:58:41.766Z,7.67
